Time;durP1;ratioP1;P1;durP2;ratioP2;P2;SDS_P1;SDS_P2;PMS_P1;PMS_P2;Temp;Humidity;BMP_temperature;BMP_pressure;BME280_temperature;BME280_humidity;BME280_pressure;Samples;Min_cycle;Max_cycle;Signal;HPM_P1;HPM_P2
2023/09/15 00:00:49;;;;;;;5.05;4.03;;;18.70;99.90;;;;;;4193903;28;20097;-63
2023/09/15 00:02:58;;;;;;;5.10;4.15;;;18.70;99.90;;;;;;4193860;28;20088;-62
2023/09/15 00:04:59;;;;;;;4.65;4.25;;;18.60;99.90;;;;;;4193882;28;20044;-63
2023/09/15 00:07:00;;;;;;;4.60;3.60;;;18.70;99.90;;;;;;4194224;28;20105;-62
2023/09/15 00:09:06;;;;;;;5.15;4.00;;;18.70;99.90;;;;;;4193958;28;20032;-62
2023/09/15 00:11:14;;;;;;;6.60;3.90;;;18.70;99.90;;;;;;4194385;28;20052;-62
2023/09/15 00:13:15;;;;;;;5.10;3.97;;;18.70;99.90;;;;;;4193943;28;20476;-63
2023/09/15 00:15:17;;;;;;;4.25;3.78;;;18.60;99.90;;;;;;4194398;28;20048;-62
2023/09/15 00:17:18;;;;;;;6.47;4.13;;;18.60;99.90;;;;;;4194119;28;20423;-62
2023/09/15 00:19:20;;;;;;;4.28;3.88;;;18.60;99.90;;;;;;4195169;28;20109;-62
2023/09/15 00:21:21;;;;;;;6.07;3.78;;;18.50;99.90;;;;;;4192882;28;20048;-63
2023/09/15 00:23:22;;;;;;;4.68;3.88;;;18.50;99.90;;;;;;4193985;28;20041;-64
2023/09/15 00:25:28;;;;;;;3.35;2.70;;;18.40;99.90;;;;;;4192933;28;20040;-63
2023/09/15 00:27:30;;;;;;;4.13;3.72;;;18.40;99.90;;;;;;4194832;28;20419;-63
2023/09/15 00:29:32;;;;;;;5.68;3.63;;;18.40;99.90;;;;;;4192990;28;20408;-62
2023/09/15 00:31:33;;;;;;;5.82;3.47;;;18.40;99.90;;;;;;4194689;28;20477;-63
2023/09/15 00:33:34;;;;;;;5.97;3.78;;;18.40;99.90;;;;;;4193861;28;20437;-62
2023/09/15 00:35:36;;;;;;;5.40;3.63;;;18.40;99.90;;;;;;4193269;28;20044;-61
2023/09/15 00:37:37;;;;;;;4.20;3.55;;;18.50;99.90;;;;;;4193373;28;20106;-60
2023/09/15 00:39:38;;;;;;;3.42;3.00;;;18.50;99.90;;;;;;4192658;28;20024;-64
2023/09/15 00:41:39;;;;;;;3.65;3.33;;;18.50;99.90;;;;;;4193237;28;20153;-61
2023/09/15 00:43:40;;;;;;;4.15;2.90;;;18.50;99.90;;;;;;4193661;28;20074;-63
2023/09/15 00:45:41;;;;;;;2.78;2.58;;;18.50;99.90;;;;;;4194022;28;20048;-62
2023/09/15 00:47:46;;;;;;;4.28;2.97;;;18.50;99.90;;;;;;4192440;28;20471;-61
2023/09/15 00:49:47;;;;;;;6.80;3.22;;;18.50;99.90;;;;;;4194613;28;20036;-61
2023/09/15 00:51:50;;;;;;;4.63;2.60;;;18.50;99.90;;;;;;4193346;28;20078;-60
2023/09/15 00:53:54;;;;;;;3.47;2.88;;;18.40;99.90;;;;;;4194683;28;20419;-61
2023/09/15 00:55:55;;;;;;;4.13;2.45;;;18.30;99.90;;;;;;4174655;28;20126;-63
2023/09/15 00:57:57;;;;;;;2.75;2.38;;;18.30;99.90;;;;;;4193231;28;20048;-62
2023/09/15 00:59:58;;;;;;;5.22;2.47;;;18.30;99.90;;;;;;4193198;28;20036;-60
2023/09/15 01:02:00;;;;;;;4.85;3.17;;;18.30;99.90;;;;;;4194403;28;20036;-61
2023/09/15 01:04:02;;;;;;;4.38;2.75;;;18.20;99.90;;;;;;4192277;28;20091;-61
2023/09/15 01:06:04;;;;;;;5.97;2.70;;;18.30;99.90;;;;;;4193471;28;20129;-61
2023/09/15 01:08:05;;;;;;;3.20;2.90;;;18.30;99.90;;;;;;4193362;28;20028;-61
2023/09/15 01:10:07;;;;;;;4.85;3.05;;;18.30;99.90;;;;;;4193402;28;20040;-61
2023/09/15 01:12:08;;;;;;;2.67;2.47;;;18.40;99.90;;;;;;4175483;28;20079;-62
2023/09/15 01:14:09;;;;;;;2.78;2.47;;;18.40;99.90;;;;;;4193383;28;20094;-61
2023/09/15 01:16:37;;;;;;;3.72;2.20;;;18.40;99.90;;;;;;4193227;28;20190;-62
2023/09/15 01:18:50;;;;;;;4.50;2.67;;;18.40;99.90;;;;;;4193157;28;20044;-63
2023/09/15 01:21:06;;;;;;;3.42;2.50;;;18.50;99.90;;;;;;4193421;28;20016;-62
2023/09/15 01:23:26;;;;;;;4.25;2.60;;;18.40;99.90;;;;;;4193748;28;20687;-62
2023/09/15 01:25:52;;;;;;;3.58;2.40;;;18.50;99.90;;;;;;4192167;28;20105;-60
2023/09/15 01:28:22;;;;;;;2.78;2.50;;;18.40;99.90;;;;;;4193400;28;20097;-62
2023/09/15 01:30:25;;;;;;;3.17;2.42;;;18.40;99.90;;;;;;4191699;28;20070;-60
2023/09/15 01:32:28;;;;;;;3.17;2.22;;;18.30;99.90;;;;;;4192221;28;20729;-59
2023/09/15 01:34:29;;;;;;;3.15;2.20;;;18.30;99.90;;;;;;4192880;28;20036;-61
2023/09/15 01:36:30;;;;;;;3.05;1.98;;;18.30;99.90;;;;;;4193993;28;20097;-62
2023/09/15 01:38:32;;;;;;;4.60;2.50;;;18.20;99.90;;;;;;4192794;28;20567;-61
2023/09/15 01:40:33;;;;;;;2.30;2.10;;;18.20;99.90;;;;;;4193541;28;20056;-62
2023/09/15 01:42:35;;;;;;;2.65;2.20;;;18.20;99.90;;;;;;4193531;28;20074;-62
2023/09/15 01:44:36;;;;;;;4.00;2.55;;;18.20;99.90;;;;;;4191848;28;20044;-63
2023/09/15 01:46:37;;;;;;;2.65;2.25;;;18.20;99.90;;;;;;4191540;28;20090;-61
2023/09/15 01:48:39;;;;;;;3.00;2.25;;;18.10;99.90;;;;;;4193012;28;20884;-62
2023/09/15 01:50:41;;;;;;;2.78;2.15;;;18.10;99.90;;;;;;4193684;28;20032;-61
2023/09/15 01:52:43;;;;;;;2.65;2.20;;;18.10;99.90;;;;;;4192830;28;20079;-61
2023/09/15 01:54:45;;;;;;;2.45;2.03;;;18.10;99.90;;;;;;4193187;28;20032;-63
2023/09/15 01:56:49;;;;;;;4.53;1.92;;;18.10;99.90;;;;;;4192622;28;20029;-61
2023/09/15 01:58:50;;;;;;;3.90;2.42;;;18.10;99.90;;;;;;4192759;28;20037;-63
2023/09/15 02:00:51;;;;;;;3.10;2.15;;;18.00;99.90;;;;;;4192375;28;20078;-60
2023/09/15 02:02:52;;;;;;;4.03;2.08;;;18.00;99.90;;;;;;4193223;28;20033;-61
2023/09/15 02:04:54;;;;;;;2.67;2.42;;;18.00;99.90;;;;;;4192084;28;20040;-61
2023/09/15 02:06:55;;;;;;;4.75;2.30;;;18.00;99.90;;;;;;4194217;28;20062;-62
2023/09/15 02:08:56;;;;;;;3.22;2.50;;;17.90;99.90;;;;;;4192503;28;20036;-62
2023/09/15 02:10:58;;;;;;;3.42;2.30;;;17.90;99.90;;;;;;4192771;28;20094;-63
2023/09/15 02:12:59;;;;;;;4.68;2.97;;;17.90;99.90;;;;;;4191971;28;20021;-61
2023/09/15 02:15:00;;;;;;;3.90;2.53;;;17.80;99.90;;;;;;4193025;28;20032;-62
2023/09/15 02:17:01;;;;;;;2.60;2.30;;;17.70;99.90;;;;;;4192782;28;20036;-61
2023/09/15 02:19:03;;;;;;;4.07;2.40;;;17.70;99.90;;;;;;4193476;28;20094;-63
2023/09/15 02:21:04;;;;;;;3.10;2.40;;;17.70;99.90;;;;;;4196449;28;20082;-61
2023/09/15 02:23:05;;;;;;;3.42;2.35;;;17.70;99.90;;;;;;4195798;28;20028;-62
2023/09/15 02:25:06;;;;;;;2.88;2.55;;;17.60;99.90;;;;;;4196439;28;20037;-63
2023/09/15 02:27:07;;;;;;;2.97;2.10;;;17.60;99.90;;;;;;4195256;28;20074;-61
2023/09/15 02:29:08;;;;;;;3.63;2.72;;;17.60;99.90;;;;;;4196805;28;20028;-62
2023/09/15 02:31:10;;;;;;;4.85;2.70;;;17.60;99.90;;;;;;4194600;28;20484;-62
2023/09/15 02:33:11;;;;;;;4.45;2.53;;;17.60;99.90;;;;;;4195154;28;20040;-62
2023/09/15 02:35:12;;;;;;;5.25;2.25;;;17.60;99.90;;;;;;4194674;28;20037;-61
2023/09/15 02:37:14;;;;;;;4.72;2.33;;;17.60;99.90;;;;;;4196472;28;20098;-61
2023/09/15 02:39:16;;;;;;;4.50;2.40;;;17.60;99.90;;;;;;4195479;28;20024;-62
2023/09/15 02:41:17;;;;;;;3.00;2.22;;;17.70;99.90;;;;;;4195519;28;20442;-61
2023/09/15 02:43:18;;;;;;;4.55;2.47;;;17.70;99.90;;;;;;4195902;28;20021;-62
2023/09/15 02:45:19;;;;;;;4.20;2.33;;;17.70;99.90;;;;;;4196370;28;20476;-63
2023/09/15 02:47:20;;;;;;;2.28;2.08;;;17.80;99.90;;;;;;4196343;28;20090;-61
2023/09/15 02:49:21;;;;;;;4.18;2.20;;;17.70;99.90;;;;;;4195996;28;20071;-62
2023/09/15 02:51:23;;;;;;;4.45;2.10;;;17.70;99.90;;;;;;4179842;28;20582;-63
2023/09/15 02:53:24;;;;;;;4.20;2.33;;;17.70;99.90;;;;;;4194428;28;20036;-63
2023/09/15 02:55:25;;;;;;;1.92;1.67;;;17.70;99.90;;;;;;4195982;28;20442;-61
2023/09/15 02:57:26;;;;;;;3.05;2.10;;;17.70;99.90;;;;;;4194586;28;20082;-61
2023/09/15 02:59:27;;;;;;;2.33;1.90;;;17.70;99.90;;;;;;4196139;28;20541;-62
2023/09/15 03:01:28;;;;;;;2.60;1.92;;;17.60;99.90;;;;;;4193712;28;20036;-61
2023/09/15 03:03:30;;;;;;;2.13;1.67;;;17.60;99.90;;;;;;4194150;28;20114;-60
2023/09/15 03:05:31;;;;;;;2.03;1.63;;;17.50;99.90;;;;;;4194263;28;20048;-61
2023/09/15 03:07:36;;;;;;;2.00;1.80;;;17.50;99.90;;;;;;4196013;28;20045;-61
2023/09/15 03:09:37;;;;;;;2.47;2.05;;;17.50;99.90;;;;;;4195206;28;20012;-60
2023/09/15 03:11:39;;;;;;;4.68;2.30;;;17.50;99.90;;;;;;4196168;28;20024;-61
2023/09/15 03:13:41;;;;;;;2.80;1.73;;;17.40;99.90;;;;;;4194971;28;20586;-61
2023/09/15 03:15:43;;;;;;;3.67;2.20;;;17.40;99.90;;;;;;4195908;28;20029;-61
2023/09/15 03:17:44;;;;;;;4.00;2.30;;;17.50;99.90;;;;;;4195492;28;20036;-61
2023/09/15 03:19:45;;;;;;;4.82;2.00;;;17.40;99.90;;;;;;4195942;28;20416;-60
2023/09/15 03:21:46;;;;;;;2.20;1.75;;;17.50;99.90;;;;;;4195984;28;20021;-61
2023/09/15 03:23:49;;;;;;;3.03;2.17;;;17.50;99.90;;;;;;4194796;28;20054;-60
2023/09/15 03:25:58;;;;;;;2.88;1.95;;;17.50;99.90;;;;;;4195219;28;20110;-60
2023/09/15 03:28:00;;;;;;;4.47;2.22;;;17.50;99.90;;;;;;4195074;28;20045;-62
2023/09/15 03:30:04;;;;;;;3.30;1.98;;;17.60;99.90;;;;;;4194776;28;20399;-62
2023/09/15 03:32:05;;;;;;;3.25;1.90;;;17.60;99.90;;;;;;4194077;28;20060;-62
2023/09/15 03:34:06;;;;;;;3.83;2.13;;;17.60;99.90;;;;;;4195471;28;20481;-61
2023/09/15 03:36:07;;;;;;;4.75;2.33;;;17.60;99.90;;;;;;4194440;28;20040;-61
2023/09/15 03:38:09;;;;;;;2.10;1.90;;;17.60;99.90;;;;;;4195633;28;20041;-61
2023/09/15 03:40:11;;;;;;;4.15;2.03;;;17.60;99.90;;;;;;4193705;28;20444;-61
2023/09/15 03:42:13;;;;;;;3.05;2.28;;;17.60;99.90;;;;;;4195883;28;20085;-61
2023/09/15 03:44:14;;;;;;;3.38;1.67;;;17.50;99.90;;;;;;4194298;28;20021;-62
2023/09/15 03:46:15;;;;;;;3.15;2.00;;;17.50;99.90;;;;;;4194971;28;20094;-62
2023/09/15 03:48:17;;;;;;;6.20;2.25;;;17.50;99.90;;;;;;4194351;28;20025;-61
2023/09/15 03:50:21;;;;;;;4.70;1.83;;;17.40;99.90;;;;;;4194383;28;20564;-61
2023/09/15 03:52:22;;;;;;;2.10;1.98;;;17.40;99.90;;;;;;4194035;28;20074;-61
2023/09/15 03:54:25;;;;;;;2.42;2.05;;;17.30;99.90;;;;;;4194848;28;20474;-62
2023/09/15 03:56:26;;;;;;;3.22;2.33;;;17.30;99.90;;;;;;4193769;28;20090;-61
2023/09/15 03:58:28;;;;;;;5.60;2.50;;;17.40;99.90;;;;;;4193746;28;20067;-61
2023/09/15 04:00:29;;;;;;;3.33;2.08;;;17.30;99.90;;;;;;4193317;28;20053;-61
2023/09/15 04:02:30;;;;;;;31.50;9.85;;;17.40;99.90;;;;;;4194291;28;20020;-62
2023/09/15 04:04:31;;;;;;;4.15;3.05;;;17.40;99.90;;;;;;4195113;28;20382;-62
2023/09/15 04:06:33;;;;;;;5.55;2.85;;;17.40;99.90;;;;;;4193650;28;20020;-63
2023/09/15 04:08:34;;;;;;;11.73;4.05;;;17.40;99.90;;;;;;4194680;28;20056;-62
2023/09/15 04:10:35;;;;;;;4.25;2.70;;;17.50;99.90;;;;;;4193426;28;20090;-61
2023/09/15 04:12:36;;;;;;;2.38;2.17;;;17.50;99.90;;;;;;4195134;28;20036;-62
2023/09/15 04:14:37;;;;;;;4.93;2.30;;;17.50;99.90;;;;;;4193924;28;20397;-62
2023/09/15 04:16:38;;;;;;;2.72;2.33;;;17.60;99.90;;;;;;4194729;28;20449;-61
2023/09/15 04:18:40;;;;;;;5.25;2.58;;;17.50;99.90;;;;;;4193774;28;20017;-62
2023/09/15 04:20:41;;;;;;;3.08;2.47;;;17.60;99.90;;;;;;4179990;28;20088;-61
2023/09/15 04:22:43;;;;;;;3.42;2.50;;;17.50;99.90;;;;;;4188152;28;20062;-63
2023/09/15 04:24:44;;;;;;;4.57;2.67;;;17.50;99.90;;;;;;4193838;28;20040;-64
2023/09/15 04:26:45;;;;;;;5.25;2.80;;;17.50;99.90;;;;;;4193422;28;20032;-62
2023/09/15 04:28:46;;;;;;;6.63;2.97;;;17.60;99.90;;;;;;4193624;28;20102;-64
2023/09/15 04:30:48;;;;;;;4.22;3.33;;;17.50;99.90;;;;;;4194462;28;20062;-63
2023/09/15 04:32:50;;;;;;;6.97;3.35;;;17.50;99.90;;;;;;4193858;28;20426;-66
2023/09/15 04:34:51;;;;;;;4.13;2.85;;;17.50;99.90;;;;;;4194485;28;20480;-62
2023/09/15 04:36:53;;;;;;;4.28;2.90;;;17.60;99.90;;;;;;4192710;28;20133;-62
2023/09/15 04:38:54;;;;;;;6.57;2.92;;;17.60;99.90;;;;;;4194225;28;20045;-61
2023/09/15 04:40:55;;;;;;;5.50;3.03;;;17.60;99.90;;;;;;4193547;28;20447;-61
2023/09/15 04:42:59;;;;;;;4.65;3.20;;;17.70;99.90;;;;;;4193109;28;20033;-61
2023/09/15 04:45:00;;;;;;;6.05;2.50;;;17.70;99.90;;;;;;4192903;28;20173;-63
2023/09/15 04:47:01;;;;;;;7.18;2.70;;;17.70;99.90;;;;;;4193647;28;20048;-63
2023/09/15 04:49:03;;;;;;;6.22;3.22;;;17.80;99.90;;;;;;4192934;28;20045;-62
2023/09/15 04:51:04;;;;;;;6.45;2.47;;;17.80;99.90;;;;;;4193803;28;20036;-61
2023/09/15 04:53:07;;;;;;;3.33;2.25;;;17.80;99.90;;;;;;4193740;28;20028;-62
2023/09/15 04:55:08;;;;;;;3.55;2.30;;;17.80;99.90;;;;;;4193806;28;20033;-62
2023/09/15 04:57:10;;;;;;;3.85;2.03;;;17.80;99.90;;;;;;4190971;28;20102;-61
2023/09/15 04:59:15;;;;;;;7.63;2.30;;;17.80;99.90;;;;;;4192818;28;20067;-60
2023/09/15 05:01:17;;;;;;;4.72;2.58;;;17.90;99.90;;;;;;4192331;28;20048;-59
2023/09/15 05:03:18;;;;;;;7.40;2.33;;;17.90;99.90;;;;;;4192501;28;20671;-60
2023/09/15 05:05:19;;;;;;;10.55;3.10;;;17.90;99.90;;;;;;4193416;28;20028;-61
2023/09/15 05:07:21;;;;;;;4.13;3.17;;;18.10;99.90;;;;;;4193039;28;20447;-60
2023/09/15 05:09:22;;;;;;;6.28;2.40;;;18.00;99.90;;;;;;4193462;28;20036;-59
2023/09/15 05:11:23;;;;;;;4.88;2.20;;;18.00;99.90;;;;;;4193027;28;20032;-60
2023/09/15 05:13:25;;;;;;;3.58;2.60;;;18.10;99.90;;;;;;4194171;28;20062;-60
2023/09/15 05:15:26;;;;;;;6.15;2.85;;;18.10;99.90;;;;;;4192709;28;20048;-60
2023/09/15 05:17:27;;;;;;;4.43;3.13;;;18.10;99.90;;;;;;4193215;28;20048;-60
2023/09/15 05:19:29;;;;;;;4.32;2.30;;;18.10;99.90;;;;;;4192332;28;20045;-61
2023/09/15 05:21:30;;;;;;;3.40;2.85;;;18.10;99.90;;;;;;4193179;28;20037;-62
2023/09/15 05:23:31;;;;;;;4.70;2.55;;;18.20;99.90;;;;;;4192146;28;20447;-61
2023/09/15 05:25:33;;;;;;;6.03;3.50;;;18.20;99.90;;;;;;4193126;28;20052;-61
2023/09/15 05:27:34;;;;;;;3.75;3.00;;;18.20;99.90;;;;;;4192356;28;20128;-60
2023/09/15 05:29:36;;;;;;;4.53;2.53;;;18.30;99.90;;;;;;4193258;28;20741;-61
2023/09/15 05:31:37;;;;;;;8.25;2.92;;;18.30;99.90;;;;;;4193086;28;20460;-61
2023/09/15 05:33:38;;;;;;;2.95;2.13;;;18.30;99.90;;;;;;4192102;28;20044;-61
2023/09/15 05:35:39;;;;;;;3.42;2.38;;;18.30;99.90;;;;;;4175629;28;20040;-59
2023/09/15 05:37:40;;;;;;;4.47;2.53;;;18.40;99.90;;;;;;4192612;28;20431;-60
2023/09/15 05:39:42;;;;;;;4.70;2.38;;;18.40;99.90;;;;;;4193900;28;20110;-60
2023/09/15 05:41:43;;;;;;;6.05;2.45;;;18.40;99.90;;;;;;4192749;28;20388;-60
2023/09/15 05:43:45;;;;;;;3.85;2.50;;;18.50;99.90;;;;;;4193947;28;20558;-60
2023/09/15 05:45:46;;;;;;;4.47;3.00;;;18.60;99.90;;;;;;4192616;28;20414;-60
2023/09/15 05:47:47;;;;;;;3.08;2.15;;;18.60;99.90;;;;;;4192846;28;20040;-60
2023/09/15 05:49:48;;;;;;;4.75;3.00;;;18.70;99.90;;;;;;4192909;28;20033;-60
2023/09/15 05:51:49;;;;;;;8.40;3.50;;;18.70;99.90;;;;;;4193727;28;20086;-61
2023/09/15 05:53:51;;;;;;;4.45;2.40;;;18.80;99.90;;;;;;4193867;28;20032;-60
2023/09/15 05:55:52;;;;;;;3.72;2.80;;;18.90;99.90;;;;;;4196426;28;20090;-61
2023/09/15 05:57:53;;;;;;;4.95;2.28;;;18.90;99.90;;;;;;4195450;28;20090;-61
2023/09/15 05:59:54;;;;;;;5.28;2.75;;;18.90;99.90;;;;;;4196540;28;20034;-61
2023/09/15 06:01:56;;;;;;;3.28;2.80;;;18.90;99.90;;;;;;4196836;28;20016;-61
2023/09/15 06:03:59;;;;;;;7.00;2.88;;;18.90;99.90;;;;;;4195478;28;20102;-62
2023/09/15 06:06:00;;;;;;;7.53;3.53;;;19.00;99.90;;;;;;4196613;28;20040;-60
2023/09/15 06:08:03;;;;;;;4.50;3.30;;;19.00;99.90;;;;;;4195152;28;20849;-61
2023/09/15 06:10:08;;;;;;;8.20;3.55;;;19.00;99.90;;;;;;4196646;28;20044;-61
2023/09/15 06:12:09;;;;;;;5.57;3.40;;;19.10;99.90;;;;;;4195039;28;20070;-61
2023/09/15 06:14:10;;;;;;;3.92;2.63;;;19.10;99.90;;;;;;4196938;28;20028;-61
2023/09/15 06:16:12;;;;;;;5.45;3.28;;;19.10;99.90;;;;;;4195577;28;20037;-60
2023/09/15 06:18:13;;;;;;;6.20;3.25;;;19.10;99.90;;;;;;4196171;28;20174;-61
2023/09/15 06:20:14;;;;;;;6.57;3.17;;;19.10;99.90;;;;;;4196064;28;20040;-61
2023/09/15 06:22:15;;;;;;;5.20;3.35;;;19.10;99.90;;;;;;4196832;28;20040;-61
2023/09/15 06:24:16;;;;;;;5.70;3.75;;;19.00;99.90;;;;;;4194502;28;20086;-61
2023/09/15 06:26:18;;;;;;;6.32;3.55;;;19.00;99.90;;;;;;4196257;28;20032;-62
2023/09/15 06:28:19;;;;;;;5.43;3.60;;;19.00;99.90;;;;;;4177343;28;20036;-60
2023/09/15 06:30:20;;;;;;;6.60;3.10;;;19.00;99.90;;;;;;4196088;28;20403;-61
2023/09/15 06:32:21;;;;;;;8.32;4.10;;;19.10;99.90;;;;;;4196000;28;20032;-61
2023/09/15 06:34:22;;;;;;;9.35;3.88;;;19.20;99.90;;;;;;4195164;28;20453;-61
2023/09/15 06:36:26;;;;;;;4.93;3.55;;;19.30;99.90;;;;;;4196096;28;20900;-61
2023/09/15 06:38:27;;;;;;;6.72;3.95;;;19.30;99.90;;;;;;4194813;28;20170;-60
2023/09/15 06:40:29;;;;;;;6.20;4.85;;;19.50;99.90;;;;;;4195064;28;20109;-60
2023/09/15 06:42:30;;;;;;;7.60;4.13;;;19.70;99.90;;;;;;4195382;28;20025;-61
2023/09/15 06:44:34;;;;;;;4.70;3.58;;;19.90;99.90;;;;;;4196388;28;20538;-61
2023/09/15 06:46:35;;;;;;;5.00;4.05;;;20.00;99.90;;;;;;4194592;28;20102;-62
2023/09/15 06:48:36;;;;;;;6.65;5.20;;;20.20;99.90;;;;;;4195605;28;20036;-61
2023/09/15 06:50:37;;;;;;;7.40;4.38;;;20.30;99.90;;;;;;4195273;28;20040;-59
2023/09/15 06:52:38;;;;;;;6.43;4.35;;;20.40;99.90;;;;;;4196317;28;20032;-60
2023/09/15 06:54:39;;;;;;;4.95;4.47;;;20.60;99.90;;;;;;4195115;28;20036;-62
2023/09/15 06:56:40;;;;;;;6.95;4.40;;;20.80;99.90;;;;;;4195293;28;20711;-61
2023/09/15 06:58:42;;;;;;;5.55;4.30;;;21.00;99.90;;;;;;4195243;28;20040;-60
2023/09/15 07:00:43;;;;;;;7.25;3.75;;;21.20;99.90;;;;;;4195189;28;20040;-61
2023/09/15 07:02:44;;;;;;;7.15;4.53;;;21.40;99.90;;;;;;4194804;28;20086;-61
2023/09/15 07:04:45;;;;;;;5.68;4.15;;;21.60;99.90;;;;;;4194165;28;20056;-61
2023/09/15 07:06:46;;;;;;;10.80;5.20;;;21.80;99.90;;;;;;4195669;28;20474;-60
2023/09/15 07:08:49;;;;;;;10.85;6.10;;;22.00;99.90;;;;;;4194620;28;20033;-61
2023/09/15 07:10:51;;;;;;;12.98;7.15;;;22.30;99.90;;;;;;4195068;28;20029;-59
2023/09/15 07:12:52;;;;;;;8.75;5.63;;;22.50;99.90;;;;;;4194066;28;20044;-61
2023/09/15 07:14:53;;;;;;;7.38;5.82;;;22.60;99.90;;;;;;4194997;28;20037;-61
2023/09/15 07:16:54;;;;;;;9.65;5.97;;;22.50;99.90;;;;;;4194311;28;20040;-61
2023/09/15 07:18:56;;;;;;;8.00;5.40;;;22.50;99.90;;;;;;4195086;28;20389;-61
2023/09/15 07:20:57;;;;;;;8.70;5.50;;;22.60;99.90;;;;;;4195122;28;20443;-61
2023/09/15 07:22:58;;;;;;;7.00;5.53;;;22.60;99.90;;;;;;4195273;28;20040;-60
2023/09/15 07:24:59;;;;;;;10.05;6.82;;;22.50;99.90;;;;;;4194542;28;20074;-61
2023/09/15 07:27:01;;;;;;;11.68;6.82;;;22.50;99.90;;;;;;4194955;28;20082;-60
2023/09/15 07:29:03;;;;;;;8.55;6.78;;;22.40;99.90;;;;;;4193997;28;20036;-62
2023/09/15 07:31:06;;;;;;;10.40;6.75;;;22.20;99.90;;;;;;4195195;28;20059;-62
2023/09/15 07:33:08;;;;;;;11.90;6.82;;;22.00;99.90;;;;;;4193633;28;20090;-61
2023/09/15 07:35:10;;;;;;;16.67;7.93;;;21.80;99.90;;;;;;4194756;28;20388;-60
2023/09/15 07:37:11;;;;;;;12.07;6.82;;;21.60;99.90;;;;;;4195179;28;20044;-61
2023/09/15 07:39:12;;;;;;;11.70;7.38;;;21.50;99.90;;;;;;4176302;28;20049;-60
2023/09/15 07:41:14;;;;;;;12.30;9.18;;;21.60;99.90;;;;;;4195335;28;20439;-61
2023/09/15 07:43:15;;;;;;;14.07;9.02;;;21.50;99.90;;;;;;4194376;28;20033;-61
2023/09/15 07:45:16;;;;;;;12.65;7.95;;;21.40;99.90;;;;;;4195394;28;20036;-62
2023/09/15 07:47:17;;;;;;;10.18;8.52;;;21.20;99.90;;;;;;4194287;28;20024;-62
2023/09/15 07:49:18;;;;;;;17.08;8.38;;;21.20;99.90;;;;;;4195376;28;20025;-61
2023/09/15 07:51:19;;;;;;;12.70;7.80;;;21.00;99.90;;;;;;4194741;28;20095;-61
2023/09/15 07:53:21;;;;;;;9.90;8.63;;;20.90;99.90;;;;;;4195440;28;20382;-61
2023/09/15 07:55:23;;;;;;;11.30;7.75;;;20.80;99.90;;;;;;4193803;28;20482;-61
2023/09/15 07:57:24;;;;;;;11.68;8.93;;;20.80;99.90;;;;;;4194637;28;20040;-61
2023/09/15 07:59:25;;;;;;;10.82;8.85;;;20.70;99.90;;;;;;4193564;28;20036;-61
2023/09/15 08:01:26;;;;;;;15.88;9.18;;;20.70;99.90;;;;;;4195080;28;20431;-61
2023/09/15 08:03:27;;;;;;;13.77;8.95;;;20.60;99.90;;;;;;4194122;28;20053;-62
2023/09/15 08:05:29;;;;;;;12.77;8.75;;;20.50;99.90;;;;;;4194728;28;20117;-61
2023/09/15 08:07:30;;;;;;;10.93;8.48;;;20.40;99.90;;;;;;4194211;28;20476;-61
2023/09/15 08:09:32;;;;;;;12.52;8.60;;;20.40;99.90;;;;;;4193838;28;20094;-61
2023/09/15 08:11:37;;;;;;;12.68;8.05;;;20.20;99.90;;;;;;4194801;28;20435;-59
2023/09/15 08:13:38;;;;;;;11.80;9.02;;;20.20;99.90;;;;;;4193898;28;20033;-61
2023/09/15 08:15:40;;;;;;;10.80;8.60;;;20.00;99.90;;;;;;4194294;28;20110;-62
2023/09/15 08:17:41;;;;;;;10.70;8.27;;;20.10;99.90;;;;;;4191823;28;20132;-63
2023/09/15 08:19:42;;;;;;;15.68;9.30;;;20.10;99.90;;;;;;4194108;28;20102;-62
2023/09/15 08:21:43;;;;;;;11.68;9.30;;;20.10;99.90;;;;;;4194164;28;20025;-60
2023/09/15 08:23:45;;;;;;;14.00;8.68;;;20.20;99.90;;;;;;4194974;28;20037;-63
2023/09/15 08:25:46;;;;;;;15.65;9.10;;;20.20;99.90;;;;;;4193335;28;20498;-60
2023/09/15 08:27:47;;;;;;;13.68;8.98;;;20.20;99.90;;;;;;4194753;28;20032;-62
2023/09/15 08:29:48;;;;;;;11.82;9.00;;;20.20;99.90;;;;;;4193135;28;20048;-62
2023/09/15 08:31:49;;;;;;;11.55;9.85;;;20.20;99.90;;;;;;4193869;28;20082;-64
2023/09/15 08:33:51;;;;;;;13.02;9.90;;;20.20;99.90;;;;;;4192874;28;20055;-61
2023/09/15 08:35:52;;;;;;;15.73;10.00;;;20.30;99.90;;;;;;4194195;28;20392;-62
2023/09/15 08:37:53;;;;;;;14.02;9.43;;;20.40;99.90;;;;;;4193580;28;20097;-62
2023/09/15 08:39:54;;;;;;;13.90;9.50;;;20.70;99.90;;;;;;4193584;28;20070;-62
2023/09/15 08:42:01;;;;;;;15.98;9.63;;;21.00;99.90;;;;;;4193685;28;20109;-58
2023/09/15 08:44:03;;;;;;;11.82;9.40;;;21.20;99.90;;;;;;4192593;28;20029;-62
2023/09/15 08:46:06;;;;;;;16.60;10.13;;;21.40;99.90;;;;;;4194373;28;20477;-60
2023/09/15 08:48:09;;;;;;;13.02;9.30;;;21.50;99.90;;;;;;4192151;28;20439;-61
2023/09/15 08:50:10;;;;;;;12.13;9.38;;;21.70;99.90;;;;;;4193547;28;20040;-61
2023/09/15 08:52:17;;;;;;;9.18;8.00;;;21.80;99.90;;;;;;4193663;28;20773;-62
2023/09/15 08:54:19;;;;;;;11.23;8.07;;;22.00;99.90;;;;;;4176512;28;20086;-61
2023/09/15 08:56:21;;;;;;;11.55;8.23;;;22.10;99.90;;;;;;4192134;28;20036;-61
2023/09/15 08:58:24;;;;;;;10.10;7.68;;;22.20;99.90;;;;;;4194265;28;20102;-61
2023/09/15 09:00:27;;;;;;;11.65;7.25;;;22.20;99.90;;;;;;4193218;28;20020;-62
2023/09/15 09:02:28;;;;;;;7.97;6.90;;;22.20;99.90;;;;;;4194194;28;20361;-61
2023/09/15 09:04:29;;;;;;;8.05;6.40;;;22.20;99.90;;;;;;4192263;28;20086;-61
2023/09/15 09:06:35;;;;;;;9.38;6.07;;;22.20;99.90;;;;;;4193819;28;20021;-61
2023/09/15 09:08:45;;;;;;;7.70;5.40;;;22.30;99.90;;;;;;4192380;28;20090;-62
2023/09/15 09:10:48;;;;;;;6.45;5.65;;;22.40;99.90;;;;;;4193187;28;20052;-61
2023/09/15 09:12:49;;;;;;;8.30;5.90;;;22.70;99.90;;;;;;4192572;28;20029;-59
2023/09/15 09:14:55;;;;;;;8.65;6.60;;;22.90;99.90;;;;;;4193697;28;20086;-61
2023/09/15 09:16:56;;;;;;;9.85;5.55;;;23.10;99.90;;;;;;4192171;28;20090;-60
2023/09/15 09:19:00;;;;;;;8.35;7.10;;;23.20;99.90;;;;;;4192932;28;20086;-60
2023/09/15 09:21:04;;;;;;;11.25;7.07;;;23.30;99.90;;;;;;4193069;28;20036;-61
2023/09/15 09:23:07;;;;;;;7.75;6.93;;;23.30;99.90;;;;;;4193100;28;20449;-60
2023/09/15 09:25:09;;;;;;;9.23;6.85;;;23.10;99.90;;;;;;4193112;28;20097;-61
2023/09/15 09:27:11;;;;;;;8.15;5.95;;;23.00;99.90;;;;;;4192040;28;20048;-62
2023/09/15 09:29:12;;;;;;;7.38;5.88;;;22.90;99.90;;;;;;4193084;28;20085;-61
2023/09/15 09:31:15;;;;;;;7.35;6.00;;;22.70;99.90;;;;;;4191892;28;20130;-61
2023/09/15 09:33:20;;;;;;;9.30;6.32;;;22.60;99.90;;;;;;4193375;28;20400;-61
2023/09/15 09:35:21;;;;;;;7.70;6.32;;;22.50;99.90;;;;;;4192568;28;20090;-62
2023/09/15 09:37:26;;;;;;;8.27;6.15;;;22.40;99.90;;;;;;4193148;28;20094;-62
2023/09/15 09:39:28;;;;;;;9.50;6.30;;;22.30;99.90;;;;;;4191959;28;20101;-62
2023/09/15 09:41:30;;;;;;;11.15;6.50;;;22.20;99.90;;;;;;4193269;28;20040;-61
2023/09/15 09:43:34;;;;;;;8.82;6.30;;;22.00;99.90;;;;;;4191591;28;20070;-61
2023/09/15 09:45:35;;;;;;;9.30;7.50;;;22.10;99.90;;;;;;4192648;28;20098;-60
2023/09/15 09:47:36;;;;;;;8.40;7.03;;;22.10;99.90;;;;;;4192224;28;20094;-61
2023/09/15 09:49:39;;;;;;;8.73;6.35;;;22.20;99.90;;;;;;4193006;28;20433;-62
2023/09/15 09:51:40;;;;;;;7.82;6.55;;;22.20;99.90;;;;;;4192288;28;20097;-61
2023/09/15 09:53:42;;;;;;;9.05;6.45;;;22.20;99.90;;;;;;4192811;28;20522;-62
2023/09/15 09:55:44;;;;;;;9.20;6.60;;;22.30;99.90;;;;;;4192643;28;20044;-61
2023/09/15 09:57:46;;;;;;;12.73;8.05;;;22.30;99.90;;;;;;4192848;28;20058;-62
2023/09/15 09:59:48;;;;;;;7.32;5.85;;;22.40;99.90;;;;;;4193090;28;20028;-61
2023/09/15 10:01:49;;;;;;;8.38;7.28;;;22.50;99.90;;;;;;4191708;28;20399;-63
2023/09/15 10:03:50;;;;;;;9.93;7.10;;;22.50;99.90;;;;;;4192864;28;20045;-62
2023/09/15 10:05:54;;;;;;;7.13;5.80;;;22.60;99.90;;;;;;4192206;28;20025;-61
2023/09/15 10:07:56;;;;;;;9.38;6.40;;;22.50;99.90;;;;;;4193416;28;20477;-61
2023/09/15 10:09:57;;;;;;;7.88;6.07;;;22.50;99.90;;;;;;4192398;28;20054;-61
2023/09/15 10:12:00;;;;;;;9.02;6.80;;;22.60;99.90;;;;;;4193090;28;20082;-62
2023/09/15 10:14:03;;;;;;;8.30;6.05;;;22.60;99.90;;;;;;4191717;28;20036;-61
2023/09/15 10:16:04;;;;;;;9.20;6.95;;;22.70;99.90;;;;;;4193215;28;20056;-61
2023/09/15 10:18:07;;;;;;;10.02;6.70;;;22.60;99.90;;;;;;4192350;28;20040;-62
2023/09/15 10:20:09;;;;;;;9.48;7.28;;;22.50;99.90;;;;;;4192906;28;20045;-62
2023/09/15 10:22:10;;;;;;;7.75;6.78;;;22.50;99.90;;;;;;4192549;28;20082;-60
2023/09/15 10:24:12;;;;;;;8.73;6.57;;;22.60;99.90;;;;;;4192447;28;20045;-61
2023/09/15 10:26:13;;;;;;;8.60;7.18;;;22.70;99.90;;;;;;4191948;28;20086;-61
2023/09/15 10:28:17;;;;;;;10.00;6.93;;;22.80;99.90;;;;;;4192276;28;20041;-61
2023/09/15 10:30:18;;;;;;;8.30;6.43;;;22.80;99.90;;;;;;4192293;28;20041;-62
2023/09/15 10:32:20;;;;;;;13.15;6.80;;;22.80;99.90;;;;;;4192577;28;20028;-63
2023/09/15 10:34:21;;;;;;;10.57;6.25;;;22.70;99.90;;;;;;4192765;28;20098;-61